sensor_id;sensor_type;location;lat;lon;timestamp;temperature;humidity
10247;DHT22;5168;47.854;7.944;2023-08-31T00:01:09;10.60;99.90
10247;DHT22;5168;47.854;7.944;2023-08-31T00:03:35;10.40;99.90
10247;DHT22;5168;47.854;7.944;2023-08-31T00:06:03;10.40;99.90
10247;DHT22;5168;47.854;7.944;2023-08-31T00:08:30;10.60;99.90
10247;DHT22;5168;47.854;7.944;2023-08-31T00:10:59;10.90;99.90
10247;DHT22;5168;47.854;7.944;2023-08-31T00:13:26;10.30;99.90
10247;DHT22;5168;47.854;7.944;2023-08-31T00:15:57;10.50;99.90
10247;DHT22;5168;47.854;7.944;2023-08-31T00:20:50;10.50;99.90
10247;DHT22;5168;47.854;7.944;2023-08-31T00:23:15;10.70;99.90
10247;DHT22;5168;47.854;7.944;2023-08-31T00:30:34;11.00;99.90
10247;DHT22;5168;47.854;7.944;2023-08-31T00:33:00;10.20;99.90
10247;DHT22;5168;47.854;7.944;2023-08-31T00:35:26;10.40;99.90
10247;DHT22;5168;47.854;7.944;2023-08-31T00:37:53;10.90;99.90
10247;DHT22;5168;47.854;7.944;2023-08-31T00:40:23;10.30;99.90
10247;DHT22;5168;47.854;7.944;2023-08-31T00:42:48;10.60;99.90
10247;DHT22;5168;47.854;7.944;2023-08-31T00:47:40;10.20;99.90
10247;DHT22;5168;47.854;7.944;2023-08-31T00:50:07;10.30;99.90
10247;DHT22;5168;47.854;7.944;2023-08-31T00:52:34;10.80;99.90
10247;DHT22;5168;47.854;7.944;2023-08-31T00:55:00;10.50;99.90
10247;DHT22;5168;47.854;7.944;2023-08-31T00:57:28;9.80;99.90
10247;DHT22;5168;47.854;7.944;2023-08-31T00:59:54;10.90;99.90
10247;DHT22;5168;47.854;7.944;2023-08-31T01:10:16;10.50;99.90
10247;DHT22;5168;47.854;7.944;2023-08-31T01:12:47;10.10;99.90
10247;DHT22;5168;47.854;7.944;2023-08-31T01:15:16;10.10;99.90
10247;DHT22;5168;47.854;7.944;2023-08-31T01:17:50;10.30;99.90
10247;DHT22;5168;47.854;7.944;2023-08-31T01:20:21;10.40;99.90
10247;DHT22;5168;47.854;7.944;2023-08-31T01:23:01;10.00;99.90
10247;DHT22;5168;47.854;7.944;2023-08-31T01:25:30;10.60;99.90
10247;DHT22;5168;47.854;7.944;2023-08-31T01:27:56;10.40;99.90
10247;DHT22;5168;47.854;7.944;2023-08-31T01:30:22;10.00;99.90
10247;DHT22;5168;47.854;7.944;2023-08-31T01:35:16;10.20;99.90
10247;DHT22;5168;47.854;7.944;2023-08-31T01:38:08;10.10;99.90
10247;DHT22;5168;47.854;7.944;2023-08-31T01:40:58;10.20;99.90
10247;DHT22;5168;47.854;7.944;2023-08-31T01:43:26;10.10;99.90
10247;DHT22;5168;47.854;7.944;2023-08-31T01:45:53;10.30;99.90
10247;DHT22;5168;47.854;7.944;2023-08-31T01:48:19;9.80;99.90
10247;DHT22;5168;47.854;7.944;2023-08-31T01:50:44;9.70;99.90
10247;DHT22;5168;47.854;7.944;2023-08-31T01:55:36;10.50;99.90
10247;DHT22;5168;47.854;7.944;2023-08-31T01:58:02;10.30;99.90
10247;DHT22;5168;47.854;7.944;2023-08-31T02:00:28;10.20;99.90
10247;DHT22;5168;47.854;7.944;2023-08-31T02:02:54;9.90;99.90
10247;DHT22;5168;47.854;7.944;2023-08-31T02:05:19;10.00;99.90
10247;DHT22;5168;47.854;7.944;2023-08-31T02:10:11;9.90;99.90
10247;DHT22;5168;47.854;7.944;2023-08-31T02:12:36;10.00;99.90
10247;DHT22;5168;47.854;7.944;2023-08-31T02:15:04;9.50;99.90
10247;DHT22;5168;47.854;7.944;2023-08-31T02:19:56;9.80;99.90
10247;DHT22;5168;47.854;7.944;2023-08-31T02:22:23;10.00;99.90
10247;DHT22;5168;47.854;7.944;2023-08-31T02:24:48;10.00;99.90
10247;DHT22;5168;47.854;7.944;2023-08-31T02:27:14;10.40;99.90
10247;DHT22;5168;47.854;7.944;2023-08-31T02:32:06;9.80;99.90
10247;DHT22;5168;47.854;7.944;2023-08-31T02:34:31;10.20;99.90
10247;DHT22;5168;47.854;7.944;2023-08-31T02:36:57;10.30;99.90
10247;DHT22;5168;47.854;7.944;2023-08-31T02:39:23;10.10;99.90
10247;DHT22;5168;47.854;7.944;2023-08-31T02:51:32;9.90;99.90
10247;DHT22;5168;47.854;7.944;2023-08-31T02:53:58;10.10;99.90
10247;DHT22;5168;47.854;7.944;2023-08-31T02:56:23;9.60;99.90
10247;DHT22;5168;47.854;7.944;2023-08-31T03:01:15;9.60;99.90
10247;DHT22;5168;47.854;7.944;2023-08-31T03:03:41;9.70;99.90
10247;DHT22;5168;47.854;7.944;2023-08-31T03:08:34;10.20;99.90
10247;DHT22;5168;47.854;7.944;2023-08-31T03:11:02;10.00;99.90
10247;DHT22;5168;47.854;7.944;2023-08-31T03:18:21;9.90;99.90
10247;DHT22;5168;47.854;7.944;2023-08-31T03:20:47;9.90;99.90
10247;DHT22;5168;47.854;7.944;2023-08-31T03:23:12;9.50;99.90
10247;DHT22;5168;47.854;7.944;2023-08-31T03:35:22;9.80;99.90
10247;DHT22;5168;47.854;7.944;2023-08-31T03:37:54;9.40;99.90
10247;DHT22;5168;47.854;7.944;2023-08-31T03:40:20;9.10;99.90
10247;DHT22;5168;47.854;7.944;2023-08-31T03:42:46;9.30;99.90
10247;DHT22;5168;47.854;7.944;2023-08-31T03:45:11;10.00;99.90
10247;DHT22;5168;47.854;7.944;2023-08-31T04:02:13;10.00;99.90
10247;DHT22;5168;47.854;7.944;2023-08-31T04:04:39;9.80;99.90
10247;DHT22;5168;47.854;7.944;2023-08-31T04:07:05;9.20;99.90
10247;DHT22;5168;47.854;7.944;2023-08-31T04:09:31;9.90;99.90
10247;DHT22;5168;47.854;7.944;2023-08-31T04:14:23;9.60;99.90
10247;DHT22;5168;47.854;7.944;2023-08-31T04:19:16;9.70;99.90
10247;DHT22;5168;47.854;7.944;2023-08-31T04:21:42;9.60;99.90
10247;DHT22;5168;47.854;7.944;2023-08-31T04:28:59;9.80;99.90
10247;DHT22;5168;47.854;7.944;2023-08-31T04:31:25;9.20;99.90
10247;DHT22;5168;47.854;7.944;2023-08-31T04:36:20;9.50;99.90
10247;DHT22;5168;47.854;7.944;2023-08-31T04:38:46;9.20;99.90
10247;DHT22;5168;47.854;7.944;2023-08-31T04:48:30;9.60;99.90
10247;DHT22;5168;47.854;7.944;2023-08-31T04:50:56;9.40;99.90
10247;DHT22;5168;47.854;7.944;2023-08-31T04:53:22;9.50;99.90
10247;DHT22;5168;47.854;7.944;2023-08-31T05:00:39;9.70;99.90
10247;DHT22;5168;47.854;7.944;2023-08-31T05:03:05;9.10;99.90
10247;DHT22;5168;47.854;7.944;2023-08-31T05:05:31;10.00;99.90
10247;DHT22;5168;47.854;7.944;2023-08-31T05:07:56;9.80;99.90
10247;DHT22;5168;47.854;7.944;2023-08-31T05:12:48;9.50;99.90
10247;DHT22;5168;47.854;7.944;2023-08-31T05:15:13;9.10;99.90
10247;DHT22;5168;47.854;7.944;2023-08-31T05:17:39;9.30;99.90
10247;DHT22;5168;47.854;7.944;2023-08-31T05:20:05;9.50;99.90
10247;DHT22;5168;47.854;7.944;2023-08-31T05:25:00;9.40;99.90
10247;DHT22;5168;47.854;7.944;2023-08-31T05:27:26;9.70;99.90
10247;DHT22;5168;47.854;7.944;2023-08-31T05:42:01;10.10;99.90
10247;DHT22;5168;47.854;7.944;2023-08-31T05:44:27;9.50;99.90
10247;DHT22;5168;47.854;7.944;2023-08-31T05:46:52;10.40;99.90
10247;DHT22;5168;47.854;7.944;2023-08-31T05:59:05;10.50;99.90
10247;DHT22;5168;47.854;7.944;2023-08-31T06:01:31;10.00;99.90
10247;DHT22;5168;47.854;7.944;2023-08-31T06:06:23;10.10;99.90
10247;DHT22;5168;47.854;7.944;2023-08-31T06:11:14;10.00;99.90
10247;DHT22;5168;47.854;7.944;2023-08-31T06:13:40;9.80;99.90
10247;DHT22;5168;47.854;7.944;2023-08-31T06:16:06;10.90;99.90
10247;DHT22;5168;47.854;7.944;2023-08-31T06:18:32;10.50;99.90
10247;DHT22;5168;47.854;7.944;2023-08-31T06:20:57;10.10;99.90
10247;DHT22;5168;47.854;7.944;2023-08-31T06:28:15;10.50;99.90
10247;DHT22;5168;47.854;7.944;2023-08-31T06:33:13;10.20;99.90
10247;DHT22;5168;47.854;7.944;2023-08-31T06:35:39;9.70;99.90
10247;DHT22;5168;47.854;7.944;2023-08-31T06:40:31;10.30;99.90
10247;DHT22;5168;47.854;7.944;2023-08-31T06:42:57;9.70;99.90
10247;DHT22;5168;47.854;7.944;2023-08-31T06:47:49;10.30;99.90
10247;DHT22;5168;47.854;7.944;2023-08-31T06:50:15;9.80;99.90
10247;DHT22;5168;47.854;7.944;2023-08-31T06:52:41;9.60;99.90
10247;DHT22;5168;47.854;7.944;2023-08-31T06:55:07;10.30;99.90
10247;DHT22;5168;47.854;7.944;2023-08-31T06:59:59;11.30;99.90
10247;DHT22;5168;47.854;7.944;2023-08-31T07:02:28;11.80;99.90
10247;DHT22;5168;47.854;7.944;2023-08-31T07:04:54;12.00;99.90
10247;DHT22;5168;47.854;7.944;2023-08-31T07:07:19;11.90;99.90
10247;DHT22;5168;47.854;7.944;2023-08-31T07:09:46;12.40;99.90
10247;DHT22;5168;47.854;7.944;2023-08-31T07:12:12;12.90;99.90
10247;DHT22;5168;47.854;7.944;2023-08-31T07:14:38;12.80;99.90
10247;DHT22;5168;47.854;7.944;2023-08-31T07:24:22;13.90;99.90
10247;DHT22;5168;47.854;7.944;2023-08-31T07:26:48;13.90;99.90
10247;DHT22;5168;47.854;7.944;2023-08-31T07:34:06;14.40;99.90
10247;DHT22;5168;47.854;7.944;2023-08-31T07:36:31;13.60;99.90
10247;DHT22;5168;47.854;7.944;2023-08-31T07:41:23;14.50;99.90
10247;DHT22;5168;47.854;7.944;2023-08-31T07:48:42;14.70;99.90
10247;DHT22;5168;47.854;7.944;2023-08-31T07:53:33;15.50;99.90
10247;DHT22;5168;47.854;7.944;2023-08-31T07:58:25;15.10;99.90
10247;DHT22;5168;47.854;7.944;2023-08-31T08:00:55;15.70;99.90
10247;DHT22;5168;47.854;7.944;2023-08-31T08:03:22;16.00;99.90
10247;DHT22;5168;47.854;7.944;2023-08-31T08:05:48;15.90;99.90
10247;DHT22;5168;47.854;7.944;2023-08-31T08:25:20;16.20;99.90
10247;DHT22;5168;47.854;7.944;2023-08-31T08:37:31;16.60;99.90
10247;DHT22;5168;47.854;7.944;2023-08-31T08:40:00;16.10;99.90
10247;DHT22;5168;47.854;7.944;2023-08-31T08:44:52;16.20;99.90
10247;DHT22;5168;47.854;7.944;2023-08-31T08:47:18;15.80;99.90
10247;DHT22;5168;47.854;7.944;2023-08-31T08:52:10;16.20;99.90
10247;DHT22;5168;47.854;7.944;2023-08-31T08:54:37;15.50;99.90
10247;DHT22;5168;47.854;7.944;2023-08-31T08:57:04;15.00;99.90
10247;DHT22;5168;47.854;7.944;2023-08-31T08:59:31;15.10;99.90
10247;DHT22;5168;47.854;7.944;2023-08-31T09:01:57;15.10;99.90
10247;DHT22;5168;47.854;7.944;2023-08-31T09:04:22;14.90;99.90
10247;DHT22;5168;47.854;7.944;2023-08-31T09:14:17;14.40;99.90
10247;DHT22;5168;47.854;7.944;2023-08-31T09:16:47;14.40;99.90
10247;DHT22;5168;47.854;7.944;2023-08-31T09:19:24;14.70;99.90
10247;DHT22;5168;47.854;7.944;2023-08-31T09:21:51;14.20;99.90
10247;DHT22;5168;47.854;7.944;2023-08-31T09:24:18;13.90;99.90
10247;DHT22;5168;47.854;7.944;2023-08-31T09:26:54;14.80;99.90
10247;DHT22;5168;47.854;7.944;2023-08-31T09:29:20;14.50;99.90
10247;DHT22;5168;47.854;7.944;2023-08-31T09:31:46;14.10;99.90
10247;DHT22;5168;47.854;7.944;2023-08-31T09:34:12;14.10;99.90
10247;DHT22;5168;47.854;7.944;2023-08-31T09:36:38;14.30;99.90
10247;DHT22;5168;47.854;7.944;2023-08-31T09:39:05;13.70;99.90
10247;DHT22;5168;47.854;7.944;2023-08-31T09:41:31;14.30;99.90
10247;DHT22;5168;47.854;7.944;2023-08-31T09:44:14;14.10;99.90
10247;DHT22;5168;47.854;7.944;2023-08-31T09:46:40;14.20;99.90
10247;DHT22;5168;47.854;7.944;2023-08-31T09:49:07;13.90;99.90
10247;DHT22;5168;47.854;7.944;2023-08-31T09:51:33;13.50;99.90
10247;DHT22;5168;47.854;7.944;2023-08-31T09:54:02;13.90;99.90
10247;DHT22;5168;47.854;7.944;2023-08-31T09:56:33;13.90;99.90
10247;DHT22;5168;47.854;7.944;2023-08-31T10:03:51;14.80;99.90
10247;DHT22;5168;47.854;7.944;2023-08-31T10:06:17;15.60;99.90
10247;DHT22;5168;47.854;7.944;2023-08-31T10:08:44;15.50;99.90
10247;DHT22;5168;47.854;7.944;2023-08-31T10:11:10;15.50;99.90
10247;DHT22;5168;47.854;7.944;2023-08-31T10:13:40;15.40;99.90
10247;DHT22;5168;47.854;7.944;2023-08-31T10:16:06;15.90;99.90
10247;DHT22;5168;47.854;7.944;2023-08-31T10:18:34;16.10;99.90
10247;DHT22;5168;47.854;7.944;2023-08-31T10:21:02;16.10;99.90
10247;DHT22;5168;47.854;7.944;2023-08-31T10:23:28;16.00;99.90
10247;DHT22;5168;47.854;7.944;2023-08-31T10:31:07;16.10;99.90
10247;DHT22;5168;47.854;7.944;2023-08-31T10:33:41;16.10;99.90
10247;DHT22;5168;47.854;7.944;2023-08-31T10:36:15;15.90;99.90
10247;DHT22;5168;47.854;7.944;2023-08-31T10:38:59;15.80;99.90
10247;DHT22;5168;47.854;7.944;2023-08-31T10:41:26;15.30;99.90
10247;DHT22;5168;47.854;7.944;2023-08-31T10:43:57;15.00;99.90
10247;DHT22;5168;47.854;7.944;2023-08-31T10:46:28;15.60;99.90
10247;DHT22;5168;47.854;7.944;2023-08-31T10:49:05;14.70;99.90
10247;DHT22;5168;47.854;7.944;2023-08-31T10:51:46;15.30;99.90
10247;DHT22;5168;47.854;7.944;2023-08-31T10:59:25;14.70;99.90
10247;DHT22;5168;47.854;7.944;2023-08-31T11:04:20;15.60;99.90
10247;DHT22;5168;47.854;7.944;2023-08-31T11:06:46;16.60;99.90
10247;DHT22;5168;47.854;7.944;2023-08-31T11:09:21;16.60;99.90
10247;DHT22;5168;47.854;7.944;2023-08-31T11:11:47;18.00;99.90
10247;DHT22;5168;47.854;7.944;2023-08-31T11:14:14;17.70;99.90
10247;DHT22;5168;47.854;7.944;2023-08-31T11:16:41;17.90;99.90
10247;DHT22;5168;47.854;7.944;2023-08-31T11:19:07;17.50;99.90
10247;DHT22;5168;47.854;7.944;2023-08-31T11:21:32;18.20;99.90
10247;DHT22;5168;47.854;7.944;2023-08-31T11:23:58;17.70;99.90
10247;DHT22;5168;47.854;7.944;2023-08-31T11:26:26;17.00;99.90
10247;DHT22;5168;47.854;7.944;2023-08-31T11:28:51;17.40;99.90
10247;DHT22;5168;47.854;7.944;2023-08-31T11:31:24;17.20;99.90
10247;DHT22;5168;47.854;7.944;2023-08-31T11:33:49;16.50;99.90
10247;DHT22;5168;47.854;7.944;2023-08-31T11:36:15;16.10;99.90
10247;DHT22;5168;47.854;7.944;2023-08-31T11:38:43;16.00;99.90
10247;DHT22;5168;47.854;7.944;2023-08-31T11:41:09;15.90;99.90
10247;DHT22;5168;47.854;7.944;2023-08-31T11:43:35;15.60;99.90
10247;DHT22;5168;47.854;7.944;2023-08-31T11:46:02;15.80;99.90
10247;DHT22;5168;47.854;7.944;2023-08-31T11:48:28;15.10;99.90
10247;DHT22;5168;47.854;7.944;2023-08-31T11:50:54;16.10;99.90
10247;DHT22;5168;47.854;7.944;2023-08-31T11:53:20;15.70;99.90
10247;DHT22;5168;47.854;7.944;2023-08-31T11:55:50;15.30;99.90
10247;DHT22;5168;47.854;7.944;2023-08-31T11:58:16;15.90;99.90
10247;DHT22;5168;47.854;7.944;2023-08-31T12:00:43;16.20;99.90
10247;DHT22;5168;47.854;7.944;2023-08-31T12:03:09;16.50;99.90
10247;DHT22;5168;47.854;7.944;2023-08-31T12:05:48;17.00;99.90
10247;DHT22;5168;47.854;7.944;2023-08-31T12:08:16;15.80;99.90
10247;DHT22;5168;47.854;7.944;2023-08-31T12:10:48;17.10;99.90
10247;DHT22;5168;47.854;7.944;2023-08-31T12:13:14;16.60;99.90
10247;DHT22;5168;47.854;7.944;2023-08-31T12:15:39;16.70;99.90
10247;DHT22;5168;47.854;7.944;2023-08-31T12:18:13;16.20;99.90
10247;DHT22;5168;47.854;7.944;2023-08-31T12:20:54;15.90;99.90
10247;DHT22;5168;47.854;7.944;2023-08-31T12:25:53;16.10;99.90
10247;DHT22;5168;47.854;7.944;2023-08-31T12:28:20;15.90;99.90
10247;DHT22;5168;47.854;7.944;2023-08-31T12:30:51;16.40;99.90
10247;DHT22;5168;47.854;7.944;2023-08-31T12:33:17;16.00;99.90
10247;DHT22;5168;47.854;7.944;2023-08-31T12:35:43;15.50;99.90
10247;DHT22;5168;47.854;7.944;2023-08-31T12:38:09;16.50;99.90
10247;DHT22;5168;47.854;7.944;2023-08-31T12:45:27;16.50;99.90
10247;DHT22;5168;47.854;7.944;2023-08-31T12:50:19;16.00;99.90
10247;DHT22;5168;47.854;7.944;2023-08-31T12:52:45;16.70;99.90
10247;DHT22;5168;47.854;7.944;2023-08-31T13:02:30;15.70;99.90
10247;DHT22;5168;47.854;7.944;2023-08-31T13:04:56;16.50;99.90
10247;DHT22;5168;47.854;7.944;2023-08-31T13:12:13;15.30;99.90
10247;DHT22;5168;47.854;7.944;2023-08-31T13:14:39;16.00;99.90
10247;DHT22;5168;47.854;7.944;2023-08-31T13:17:05;16.00;99.90
10247;DHT22;5168;47.854;7.944;2023-08-31T13:19:31;15.50;99.90
10247;DHT22;5168;47.854;7.944;2023-08-31T13:21:57;15.90;99.90
10247;DHT22;5168;47.854;7.944;2023-08-31T13:31:41;15.80;99.90
10247;DHT22;5168;47.854;7.944;2023-08-31T13:34:07;16.30;99.90
10247;DHT22;5168;47.854;7.944;2023-08-31T13:41:25;16.30;99.90
10247;DHT22;5168;47.854;7.944;2023-08-31T13:43:50;16.10;99.90
10247;DHT22;5168;47.854;7.944;2023-08-31T13:46:17;16.40;99.90
10247;DHT22;5168;47.854;7.944;2023-08-31T13:48:43;15.90;99.90
10247;DHT22;5168;47.854;7.944;2023-08-31T13:51:09;16.40;99.90
10247;DHT22;5168;47.854;7.944;2023-08-31T13:56:00;16.20;99.90
10247;DHT22;5168;47.854;7.944;2023-08-31T13:58:27;17.70;99.90
10247;DHT22;5168;47.854;7.944;2023-08-31T14:00:53;16.10;99.90
10247;DHT22;5168;47.854;7.944;2023-08-31T14:05:48;15.90;99.90
10247;DHT22;5168;47.854;7.944;2023-08-31T14:10:40;15.50;99.90
10247;DHT22;5168;47.854;7.944;2023-08-31T14:13:05;15.70;99.90
10247;DHT22;5168;47.854;7.944;2023-08-31T14:15:32;15.90;99.90
10247;DHT22;5168;47.854;7.944;2023-08-31T14:17:57;15.40;99.90
10247;DHT22;5168;47.854;7.944;2023-08-31T14:22:49;16.20;99.90
10247;DHT22;5168;47.854;7.944;2023-08-31T14:25:16;15.50;99.90
10247;DHT22;5168;47.854;7.944;2023-08-31T14:27:42;15.40;99.90
10247;DHT22;5168;47.854;7.944;2023-08-31T14:30:08;15.50;99.90
10247;DHT22;5168;47.854;7.944;2023-08-31T14:39:52;15.50;99.90
10247;DHT22;5168;47.854;7.944;2023-08-31T14:42:18;15.80;99.90
10247;DHT22;5168;47.854;7.944;2023-08-31T14:44:47;15.70;99.90
10247;DHT22;5168;47.854;7.944;2023-08-31T14:47:12;16.30;99.90
10247;DHT22;5168;47.854;7.944;2023-08-31T14:49:41;15.70;99.90
10247;DHT22;5168;47.854;7.944;2023-08-31T14:52:06;15.30;99.90
10247;DHT22;5168;47.854;7.944;2023-08-31T14:54:33;15.70;99.90
10247;DHT22;5168;47.854;7.944;2023-08-31T14:59:24;15.40;99.90
10247;DHT22;5168;47.854;7.944;2023-08-31T15:01:51;15.30;99.90
10247;DHT22;5168;47.854;7.944;2023-08-31T15:04:16;15.80;99.90
10247;DHT22;5168;47.854;7.944;2023-08-31T15:06:42;15.80;99.90
10247;DHT22;5168;47.854;7.944;2023-08-31T15:09:08;15.50;99.90
10247;DHT22;5168;47.854;7.944;2023-08-31T15:11:34;15.60;99.90
10247;DHT22;5168;47.854;7.944;2023-08-31T15:16:26;15.30;99.90
10247;DHT22;5168;47.854;7.944;2023-08-31T15:28:40;14.90;99.90
10247;DHT22;5168;47.854;7.944;2023-08-31T15:33:32;15.30;99.90
10247;DHT22;5168;47.854;7.944;2023-08-31T15:36:08;14.80;99.90
10247;DHT22;5168;47.854;7.944;2023-08-31T15:38:34;14.90;99.90
10247;DHT22;5168;47.854;7.944;2023-08-31T15:41:01;14.80;99.90
10247;DHT22;5168;47.854;7.944;2023-08-31T15:43:31;14.50;99.90
10247;DHT22;5168;47.854;7.944;2023-08-31T15:45:58;14.90;99.90
10247;DHT22;5168;47.854;7.944;2023-08-31T15:50:52;15.10;99.90
10247;DHT22;5168;47.854;7.944;2023-08-31T15:53:17;14.20;99.90
10247;DHT22;5168;47.854;7.944;2023-08-31T15:55:46;14.70;99.90
10247;DHT22;5168;47.854;7.944;2023-08-31T16:00:38;14.10;99.90
10247;DHT22;5168;47.854;7.944;2023-08-31T16:03:04;14.30;99.90
10247;DHT22;5168;47.854;7.944;2023-08-31T16:10:26;14.20;99.90
10247;DHT22;5168;47.854;7.944;2023-08-31T16:12:53;13.80;99.90
10247;DHT22;5168;47.854;7.944;2023-08-31T16:15:18;13.70;99.90
10247;DHT22;5168;47.854;7.944;2023-08-31T16:17:44;13.80;99.90
10247;DHT22;5168;47.854;7.944;2023-08-31T16:22:37;13.80;99.90
10247;DHT22;5168;47.854;7.944;2023-08-31T16:25:03;14.10;99.90
10247;DHT22;5168;47.854;7.944;2023-08-31T16:27:29;13.60;99.90
10247;DHT22;5168;47.854;7.944;2023-08-31T16:29:55;13.80;99.90
10247;DHT22;5168;47.854;7.944;2023-08-31T16:32:21;14.00;99.90
10247;DHT22;5168;47.854;7.944;2023-08-31T16:37:13;13.20;99.90
10247;DHT22;5168;47.854;7.944;2023-08-31T16:49:22;13.50;99.90
10247;DHT22;5168;47.854;7.944;2023-08-31T16:51:48;12.80;99.90
10247;DHT22;5168;47.854;7.944;2023-08-31T16:54:14;12.70;99.90
10247;DHT22;5168;47.854;7.944;2023-08-31T16:56:40;13.30;99.90
10247;DHT22;5168;47.854;7.944;2023-08-31T16:59:06;13.70;99.90
10247;DHT22;5168;47.854;7.944;2023-08-31T17:06:23;13.50;99.90
10247;DHT22;5168;47.854;7.944;2023-08-31T17:08:50;13.30;99.90
10247;DHT22;5168;47.854;7.944;2023-08-31T17:16:09;12.70;99.90
10247;DHT22;5168;47.854;7.944;2023-08-31T17:18:35;13.50;99.90
10247;DHT22;5168;47.854;7.944;2023-08-31T17:21:01;13.40;99.90
10247;DHT22;5168;47.854;7.944;2023-08-31T17:30:44;12.50;99.90
10247;DHT22;5168;47.854;7.944;2023-08-31T17:33:10;12.90;99.90
10247;DHT22;5168;47.854;7.944;2023-08-31T17:38:01;12.50;99.90
10247;DHT22;5168;47.854;7.944;2023-08-31T17:42:52;13.00;99.90
10247;DHT22;5168;47.854;7.944;2023-08-31T17:45:18;12.70;99.90
10247;DHT22;5168;47.854;7.944;2023-08-31T17:47:44;12.80;99.90
10247;DHT22;5168;47.854;7.944;2023-08-31T17:55:02;12.60;99.90
10247;DHT22;5168;47.854;7.944;2023-08-31T17:57:28;12.40;99.90
10247;DHT22;5168;47.854;7.944;2023-08-31T17:59:54;13.00;99.90
10247;DHT22;5168;47.854;7.944;2023-08-31T18:07:12;12.60;99.90
10247;DHT22;5168;47.854;7.944;2023-08-31T18:09:37;12.10;99.90
10247;DHT22;5168;47.854;7.944;2023-08-31T18:12:04;12.10;99.90
10247;DHT22;5168;47.854;7.944;2023-08-31T18:14:30;12.60;99.90
10247;DHT22;5168;47.854;7.944;2023-08-31T18:16:56;12.80;99.90
10247;DHT22;5168;47.854;7.944;2023-08-31T18:19:21;12.00;99.90
10247;DHT22;5168;47.854;7.944;2023-08-31T18:26:41;12.70;99.90
10247;DHT22;5168;47.854;7.944;2023-08-31T18:33:59;12.10;99.90
10247;DHT22;5168;47.854;7.944;2023-08-31T18:38:52;11.90;99.90
10247;DHT22;5168;47.854;7.944;2023-08-31T18:43:43;11.90;99.90
10247;DHT22;5168;47.854;7.944;2023-08-31T18:46:10;11.90;99.90
10247;DHT22;5168;47.854;7.944;2023-08-31T18:55:58;12.00;99.90
10247;DHT22;5168;47.854;7.944;2023-08-31T19:00:52;12.50;99.90
10247;DHT22;5168;47.854;7.944;2023-08-31T19:03:17;11.70;99.90
10247;DHT22;5168;47.854;7.944;2023-08-31T19:05:43;12.40;99.90
10247;DHT22;5168;47.854;7.944;2023-08-31T19:13:00;11.60;99.90
10247;DHT22;5168;47.854;7.944;2023-08-31T19:15:35;12.00;99.90
10247;DHT22;5168;47.854;7.944;2023-08-31T19:22:53;12.30;99.90
10247;DHT22;5168;47.854;7.944;2023-08-31T19:25:18;11.60;99.90
10247;DHT22;5168;47.854;7.944;2023-08-31T19:27:47;11.70;99.90
10247;DHT22;5168;47.854;7.944;2023-08-31T19:35:08;11.60;99.90
10247;DHT22;5168;47.854;7.944;2023-08-31T19:40:00;11.00;99.90
10247;DHT22;5168;47.854;7.944;2023-08-31T19:42:26;12.40;99.90
10247;DHT22;5168;47.854;7.944;2023-08-31T19:47:18;11.70;99.90
10247;DHT22;5168;47.854;7.944;2023-08-31T19:49:43;11.90;99.90
10247;DHT22;5168;47.854;7.944;2023-08-31T19:54:38;11.80;99.90
10247;DHT22;5168;47.854;7.944;2023-08-31T19:57:04;12.40;99.90
10247;DHT22;5168;47.854;7.944;2023-08-31T19:59:29;12.50;99.90
10247;DHT22;5168;47.854;7.944;2023-08-31T20:06:47;12.50;99.90
10247;DHT22;5168;47.854;7.944;2023-08-31T20:11:40;12.40;99.90
10247;DHT22;5168;47.854;7.944;2023-08-31T20:14:05;11.70;99.90
10247;DHT22;5168;47.854;7.944;2023-08-31T20:18:57;12.20;99.90
10247;DHT22;5168;47.854;7.944;2023-08-31T20:28:43;12.20;99.90
10247;DHT22;5168;47.854;7.944;2023-08-31T20:31:09;11.50;99.90
10247;DHT22;5168;47.854;7.944;2023-08-31T20:33:35;11.80;99.90
10247;DHT22;5168;47.854;7.944;2023-08-31T20:36:04;12.00;99.90
10247;DHT22;5168;47.854;7.944;2023-08-31T20:38:30;12.50;99.90
10247;DHT22;5168;47.854;7.944;2023-08-31T20:40:55;12.10;99.90
10247;DHT22;5168;47.854;7.944;2023-08-31T20:43:23;12.60;99.90
10247;DHT22;5168;47.854;7.944;2023-08-31T20:48:14;12.80;99.90
10247;DHT22;5168;47.854;7.944;2023-08-31T20:50:40;12.60;99.90
10247;DHT22;5168;47.854;7.944;2023-08-31T20:53:05;12.20;99.90
10247;DHT22;5168;47.854;7.944;2023-08-31T21:00:23;12.70;99.90
10247;DHT22;5168;47.854;7.944;2023-08-31T21:02:49;12.20;99.90
10247;DHT22;5168;47.854;7.944;2023-08-31T21:05:15;12.10;99.90
10247;DHT22;5168;47.854;7.944;2023-08-31T21:07:41;12.50;99.90
10247;DHT22;5168;47.854;7.944;2023-08-31T21:10:07;12.10;99.90
10247;DHT22;5168;47.854;7.944;2023-08-31T21:12:33;12.50;99.90
10247;DHT22;5168;47.854;7.944;2023-08-31T21:14:59;12.10;99.90
10247;DHT22;5168;47.854;7.944;2023-08-31T21:17:24;12.50;99.90
10247;DHT22;5168;47.854;7.944;2023-08-31T21:22:16;12.00;99.90
10247;DHT22;5168;47.854;7.944;2023-08-31T21:24:41;12.50;99.90
10247;DHT22;5168;47.854;7.944;2023-08-31T21:27:07;12.30;99.90
10247;DHT22;5168;47.854;7.944;2023-08-31T21:29:33;12.20;99.90
10247;DHT22;5168;47.854;7.944;2023-08-31T21:39:16;12.20;99.90
10247;DHT22;5168;47.854;7.944;2023-08-31T21:41:42;12.90;99.90
10247;DHT22;5168;47.854;7.944;2023-08-31T21:46:33;12.00;99.90
10247;DHT22;5168;47.854;7.944;2023-08-31T21:48:59;12.00;99.90
10247;DHT22;5168;47.854;7.944;2023-08-31T21:51:24;12.90;99.90
10247;DHT22;5168;47.854;7.944;2023-08-31T21:53:50;12.70;99.90
10247;DHT22;5168;47.854;7.944;2023-08-31T22:01:07;12.10;99.90
10247;DHT22;5168;47.854;7.944;2023-08-31T22:03:33;12.50;99.90
10247;DHT22;5168;47.854;7.944;2023-08-31T22:06:08;12.50;99.90
10247;DHT22;5168;47.854;7.944;2023-08-31T22:08:35;12.50;99.90
10247;DHT22;5168;47.854;7.944;2023-08-31T22:11:02;12.30;99.90
10247;DHT22;5168;47.854;7.944;2023-08-31T22:13:29;12.10;99.90
10247;DHT22;5168;47.854;7.944;2023-08-31T22:15:54;12.00;99.90
10247;DHT22;5168;47.854;7.944;2023-08-31T22:18:20;13.10;99.90
10247;DHT22;5168;47.854;7.944;2023-08-31T22:20:46;12.40;99.90
10247;DHT22;5168;47.854;7.944;2023-08-31T22:23:11;13.10;99.90
10247;DHT22;5168;47.854;7.944;2023-08-31T22:25:37;12.90;99.90
10247;DHT22;5168;47.854;7.944;2023-08-31T22:28:03;13.00;99.90
10247;DHT22;5168;47.854;7.944;2023-08-31T22:40:14;12.20;99.90
10247;DHT22;5168;47.854;7.944;2023-08-31T22:42:40;12.60;99.90
10247;DHT22;5168;47.854;7.944;2023-08-31T22:45:07;12.80;99.90
10247;DHT22;5168;47.854;7.944;2023-08-31T22:47:34;12.60;99.90
10247;DHT22;5168;47.854;7.944;2023-08-31T22:54:56;12.70;99.90
10247;DHT22;5168;47.854;7.944;2023-08-31T22:57:24;12.40;99.90
10247;DHT22;5168;47.854;7.944;2023-08-31T22:59:51;13.10;99.90
10247;DHT22;5168;47.854;7.944;2023-08-31T23:02:17;12.80;99.90
10247;DHT22;5168;47.854;7.944;2023-08-31T23:04:43;12.90;99.90
10247;DHT22;5168;47.854;7.944;2023-08-31T23:07:09;12.30;99.90
10247;DHT22;5168;47.854;7.944;2023-08-31T23:12:02;12.40;99.90
10247;DHT22;5168;47.854;7.944;2023-08-31T23:14:28;12.80;99.90
10247;DHT22;5168;47.854;7.944;2023-08-31T23:16:56;12.90;99.90
10247;DHT22;5168;47.854;7.944;2023-08-31T23:19:22;12.60;99.90